createdAt,value
2022-10-05T00:00:47.143Z,99.90
2022-10-05T00:03:16.015Z,99.90
2022-10-05T00:05:47.195Z,99.90
2022-10-05T00:08:18.636Z,99.90
2022-10-05T00:10:47.984Z,99.90
2022-10-05T00:13:21.103Z,99.90
2022-10-05T00:15:50.767Z,99.90
2022-10-05T00:18:21.645Z,99.90
2022-10-05T00:20:51.055Z,99.90
2022-10-05T00:23:22.661Z,99.90
2022-10-05T00:25:51.877Z,99.90
2022-10-05T00:28:27.630Z,99.90
2022-10-05T00:30:57.413Z,99.90
2022-10-05T00:33:26.477Z,99.90
2022-10-05T00:35:56.029Z,99.90
2022-10-05T00:38:25.105Z,99.90
2022-10-05T00:41:05.956Z,99.90
2022-10-05T00:44:01.867Z,99.90
2022-10-05T00:46:39.975Z,99.90
2022-10-05T00:49:17.891Z,99.90
2022-10-05T00:51:56.858Z,99.90
2022-10-05T00:54:32.205Z,99.90
2022-10-05T00:57:17.256Z,99.90
2022-10-05T00:59:59.368Z,99.90
2022-10-05T01:02:37.091Z,99.90
2022-10-05T01:05:12.814Z,99.90
2022-10-05T01:07:48.883Z,99.90
2022-10-05T01:10:25.605Z,99.90
2022-10-05T01:13:03.872Z,99.90
2022-10-05T01:15:39.801Z,99.90
2022-10-05T01:18:15.236Z,99.90
2022-10-05T01:20:52.401Z,99.90
2022-10-05T01:23:51.777Z,99.90
2022-10-05T01:26:43.898Z,99.90
2022-10-05T01:29:21.518Z,99.90
2022-10-05T01:31:55.611Z,99.90
2022-10-05T01:34:31.575Z,99.90
2022-10-05T01:37:05.185Z,99.90
2022-10-05T01:39:44.226Z,99.90
2022-10-05T01:42:19.009Z,99.90
2022-10-05T01:44:56.073Z,99.90
2022-10-05T01:47:31.236Z,99.90
2022-10-05T01:50:04.566Z,99.90
2022-10-05T01:52:44.895Z,99.90
2022-10-05T01:55:23.715Z,99.90
2022-10-05T01:58:06.082Z,99.90
2022-10-05T02:00:43.307Z,99.90
2022-10-05T02:03:19.154Z,99.90
2022-10-05T02:05:53.539Z,99.90
2022-10-05T02:08:26.699Z,99.90
2022-10-05T02:11:02.191Z,99.90
2022-10-05T02:13:36.541Z,99.90
2022-10-05T02:16:12.072Z,99.90
2022-10-05T02:18:48.129Z,99.90
2022-10-05T02:21:17.777Z,99.90
2022-10-05T02:23:49.463Z,99.90
2022-10-05T02:26:20.022Z,99.90
2022-10-05T02:28:53.687Z,99.90
2022-10-05T02:31:28.602Z,99.90
2022-10-05T02:34:25.920Z,99.90
2022-10-05T02:37:12.206Z,99.90
2022-10-05T02:39:53.200Z,99.90
2022-10-05T02:42:28.846Z,99.90
2022-10-05T02:45:04.535Z,99.90
2022-10-05T02:47:42.885Z,99.90
2022-10-05T02:50:24.376Z,99.90
2022-10-05T02:53:03.359Z,99.90
2022-10-05T02:55:41.575Z,99.90
2022-10-05T02:58:17.168Z,99.90
2022-10-05T03:00:50.562Z,99.90
2022-10-05T03:03:27.380Z,99.90
2022-10-05T03:06:02.034Z,99.90
2022-10-05T03:08:38.013Z,99.90
2022-10-05T03:11:16.043Z,99.90
2022-10-05T03:13:51.914Z,99.90
2022-10-05T03:16:37.052Z,99.90
2022-10-05T03:19:22.156Z,99.90
2022-10-05T03:22:01.022Z,99.90
2022-10-05T03:25:04.493Z,99.90
2022-10-05T03:27:41.004Z,99.90
2022-10-05T03:30:17.483Z,99.90
2022-10-05T03:32:57.741Z,99.90
2022-10-05T03:35:34.022Z,99.90
2022-10-05T03:38:10.488Z,99.90
2022-10-05T03:40:45.944Z,99.90
2022-10-05T03:43:32.541Z,99.90
2022-10-05T03:46:07.665Z,99.90
2022-10-05T03:48:46.038Z,99.90
2022-10-05T03:51:22.492Z,99.90
2022-10-05T03:53:57.095Z,99.90
2022-10-05T03:56:36.083Z,99.90
2022-10-05T03:59:13.181Z,99.90
2022-10-05T04:01:46.857Z,99.90
2022-10-05T04:04:22.216Z,99.90
2022-10-05T04:06:55.163Z,99.90
2022-10-05T04:09:28.689Z,99.90
2022-10-05T04:12:09.385Z,99.90
2022-10-05T04:14:42.481Z,99.90
2022-10-05T04:17:15.250Z,99.90
2022-10-05T04:19:51.988Z,99.90
2022-10-05T04:22:26.184Z,99.90
2022-10-05T04:24:59.529Z,99.90
2022-10-05T04:27:34.440Z,99.90
2022-10-05T04:30:08.158Z,99.90
2022-10-05T04:32:39.914Z,99.90
2022-10-05T04:35:38.488Z,99.90
2022-10-05T04:38:23.403Z,99.90
2022-10-05T04:41:06.671Z,99.90
2022-10-05T04:43:46.885Z,99.90
2022-10-05T04:46:25.411Z,99.90
2022-10-05T04:49:15.085Z,99.90
2022-10-05T04:51:53.163Z,99.90
2022-10-05T04:54:37.007Z,99.90
2022-10-05T04:57:12.675Z,99.90
2022-10-05T05:00:03.019Z,99.90
2022-10-05T05:02:49.060Z,99.90
2022-10-05T05:05:32.683Z,99.90
2022-10-05T05:08:17.774Z,99.90
2022-10-05T05:11:17.393Z,99.90
2022-10-05T05:14:17.357Z,99.90
2022-10-05T05:16:53.358Z,99.90
2022-10-05T05:19:40.832Z,99.90
2022-10-05T05:22:21.482Z,99.90
2022-10-05T05:25:04.543Z,99.90
2022-10-05T05:27:44.087Z,99.90
2022-10-05T05:30:23.890Z,99.90
2022-10-05T05:33:15.373Z,99.90
2022-10-05T05:36:14.324Z,99.90
2022-10-05T05:38:49.493Z,99.90
2022-10-05T05:41:28.030Z,99.90
2022-10-05T05:44:07.127Z,99.90
2022-10-05T05:47:02.407Z,99.90
2022-10-05T05:49:39.142Z,99.90
2022-10-05T05:52:15.500Z,99.90
2022-10-05T05:54:49.566Z,99.90
2022-10-05T05:57:22.587Z,99.90
2022-10-05T06:00:01.286Z,99.90
2022-10-05T06:02:40.297Z,99.90
2022-10-05T06:05:25.096Z,99.90
2022-10-05T06:07:56.029Z,99.90
2022-10-05T06:10:32.351Z,99.90
2022-10-05T06:13:17.329Z,99.90
2022-10-05T06:15:52.571Z,99.90
2022-10-05T06:18:23.413Z,99.90
2022-10-05T06:21:00.769Z,99.90
2022-10-05T06:23:36.706Z,99.90
2022-10-05T06:26:16.269Z,99.90
2022-10-05T06:28:53.047Z,99.90
2022-10-05T06:31:39.078Z,99.90
2022-10-05T06:34:27.332Z,99.90
2022-10-05T06:37:01.344Z,99.90
2022-10-05T06:39:50.385Z,99.90
2022-10-05T06:42:30.801Z,99.90
2022-10-05T06:45:22.524Z,99.90
2022-10-05T06:48:26.103Z,99.90
2022-10-05T06:51:24.582Z,99.90
2022-10-05T06:54:21.038Z,99.90
2022-10-05T06:56:57.389Z,99.90
2022-10-05T06:59:33.259Z,99.90
2022-10-05T07:02:10.725Z,99.90
2022-10-05T07:04:53.075Z,99.90
2022-10-05T07:07:30.744Z,99.90
2022-10-05T07:10:16.348Z,99.90
2022-10-05T07:12:59.730Z,99.90
2022-10-05T07:15:41.463Z,99.90
2022-10-05T07:18:30.316Z,99.90
2022-10-05T07:21:07.330Z,99.90
2022-10-05T07:24:00.243Z,99.90
2022-10-05T07:26:34.709Z,99.90
2022-10-05T07:29:33.630Z,99.90
2022-10-05T07:32:13.858Z,99.90
2022-10-05T07:34:51.174Z,99.90
2022-10-05T07:37:45.299Z,99.90
2022-10-05T07:40:20.402Z,99.90
2022-10-05T07:43:03.829Z,99.90
2022-10-05T07:45:42.254Z,99.90
2022-10-05T07:48:16.677Z,99.90
2022-10-05T07:50:57.774Z,99.90
2022-10-05T07:53:33.644Z,99.90
2022-10-05T07:56:09.968Z,99.90
2022-10-05T07:58:43.984Z,99.90
2022-10-05T08:01:19.122Z,99.90
2022-10-05T08:03:55.306Z,99.90
2022-10-05T08:06:49.527Z,99.90
2022-10-05T08:09:34.269Z,99.90
2022-10-05T08:12:17.760Z,99.90
2022-10-05T08:14:52.768Z,99.90
2022-10-05T08:17:31.917Z,99.90
2022-10-05T08:20:08.359Z,99.90
2022-10-05T08:22:44.962Z,99.90
2022-10-05T08:25:23.014Z,99.90
2022-10-05T08:27:57.577Z,99.90
2022-10-05T08:30:26.289Z,99.90
2022-10-05T08:33:01.622Z,99.90
2022-10-05T08:35:36.583Z,99.90
2022-10-05T08:38:12.457Z,99.90
2022-10-05T08:41:16.090Z,99.90
2022-10-05T08:44:18.608Z,99.90
2022-10-05T08:47:20.638Z,99.90
2022-10-05T08:50:23.178Z,99.90
2022-10-05T08:53:29.851Z,99.90
2022-10-05T08:56:28.980Z,99.90
2022-10-05T08:59:29.522Z,99.90
2022-10-05T09:02:15.280Z,99.90
2022-10-05T09:05:01.542Z,99.90
2022-10-05T09:08:18.649Z,99.90
2022-10-05T09:11:05.073Z,99.90
2022-10-05T09:14:06.284Z,99.90
2022-10-05T09:16:51.232Z,99.90
2022-10-05T09:19:43.900Z,99.90
2022-10-05T09:22:17.636Z,99.90
2022-10-05T09:24:57.098Z,99.90
2022-10-05T09:27:37.445Z,99.90
2022-10-05T09:30:26.890Z,99.90
2022-10-05T09:33:30.690Z,99.90
2022-10-05T09:36:34.063Z,99.90
2022-10-05T09:39:25.887Z,99.90
2022-10-05T09:42:23.390Z,99.90
2022-10-05T09:45:22.480Z,99.90
2022-10-05T09:48:21.903Z,99.90
2022-10-05T09:51:19.643Z,99.90
2022-10-05T09:54:30.027Z,99.90
2022-10-05T09:57:34.086Z,99.90
2022-10-05T10:00:34.356Z,99.90
2022-10-05T10:04:30.495Z,99.90
2022-10-05T10:07:32.424Z,99.90
2022-10-05T10:10:34.161Z,99.90
2022-10-05T10:13:30.940Z,99.90
2022-10-05T10:16:14.197Z,99.90
2022-10-05T10:19:06.861Z,99.90
2022-10-05T10:22:02.932Z,99.90
2022-10-05T10:24:57.535Z,99.90
2022-10-05T10:27:54.171Z,99.90
2022-10-05T10:30:44.535Z,99.90
2022-10-05T10:33:31.085Z,99.90
2022-10-05T10:36:06.979Z,99.90
2022-10-05T10:38:54.753Z,99.90
2022-10-05T10:42:05.790Z,99.90
2022-10-05T10:45:28.627Z,99.90
2022-10-05T10:48:03.411Z,99.90
2022-10-05T10:51:04.319Z,99.90
2022-10-05T10:54:08.642Z,99.90
2022-10-05T10:57:03.108Z,99.90
2022-10-05T11:00:03.911Z,99.90
2022-10-05T11:03:04.837Z,99.90
2022-10-05T11:05:59.903Z,99.90
2022-10-05T11:09:14.411Z,99.90
2022-10-05T11:12:27.527Z,99.90
2022-10-05T11:15:19.456Z,99.90
2022-10-05T11:17:59.889Z,99.90
2022-10-05T11:20:56.066Z,99.90
2022-10-05T11:23:39.902Z,99.90
2022-10-05T11:26:24.580Z,99.90
2022-10-05T11:29:37.187Z,99.90
2022-10-05T11:32:41.953Z,99.90
2022-10-05T11:36:20.169Z,99.90
2022-10-05T11:39:22.268Z,99.90
2022-10-05T11:42:26.260Z,99.90
2022-10-05T11:45:27.804Z,99.90
2022-10-05T11:48:27.793Z,99.90
2022-10-05T11:51:18.761Z,99.90
2022-10-05T11:53:58.387Z,99.90
2022-10-05T11:56:34.228Z,98.80
2022-10-05T11:59:10.797Z,99.20
2022-10-05T12:01:45.676Z,99.30
2022-10-05T12:04:31.601Z,98.80
2022-10-05T12:07:09.720Z,99.60
2022-10-05T12:10:17.555Z,99.20
2022-10-05T12:13:01.225Z,99.30
2022-10-05T12:15:36.900Z,98.00
2022-10-05T12:18:13.603Z,98.90
2022-10-05T12:20:48.609Z,98.10
2022-10-05T12:23:25.901Z,99.10
2022-10-05T12:26:00.869Z,98.50
2022-10-05T12:28:35.623Z,98.30
2022-10-05T12:31:25.613Z,98.10
2022-10-05T12:34:03.264Z,97.70
2022-10-05T12:37:02.954Z,97.00
2022-10-05T12:39:40.097Z,97.40
2022-10-05T12:42:25.957Z,96.70
2022-10-05T12:45:18.897Z,97.50
2022-10-05T12:48:07.642Z,97.40
2022-10-05T12:50:38.670Z,96.50
2022-10-05T12:53:35.798Z,96.00
2022-10-05T12:56:12.169Z,96.50
2022-10-05T12:58:52.768Z,96.70
2022-10-05T13:01:30.558Z,97.10
2022-10-05T13:04:09.931Z,97.20
2022-10-05T13:06:45.657Z,96.90
2022-10-05T13:09:24.144Z,97.70
2022-10-05T13:12:00.478Z,97.20
2022-10-05T13:14:48.860Z,97.00
2022-10-05T13:17:25.751Z,97.50
2022-10-05T13:20:00.164Z,97.10
2022-10-05T13:22:35.941Z,97.70
2022-10-05T13:25:20.815Z,97.40
2022-10-05T13:28:06.219Z,97.40
2022-10-05T13:30:36.727Z,96.90
2022-10-05T13:33:08.439Z,97.30
2022-10-05T13:35:45.910Z,97.70
2022-10-05T13:38:28.522Z,97.70
2022-10-05T13:41:07.799Z,97.70
2022-10-05T13:43:45.843Z,97.60
2022-10-05T13:46:24.622Z,97.20
2022-10-05T13:49:04.508Z,97.30
2022-10-05T13:51:41.864Z,97.50
2022-10-05T13:54:18.606Z,97.80
2022-10-05T13:56:53.910Z,97.60
2022-10-05T13:59:33.332Z,97.80
2022-10-05T14:02:08.032Z,97.70
2022-10-05T14:04:46.747Z,97.50
2022-10-05T14:07:26.229Z,97.50
2022-10-05T14:09:55.064Z,98.10
2022-10-05T14:12:24.941Z,98.60
2022-10-05T14:14:56.848Z,97.60
2022-10-05T14:17:40.939Z,97.90
2022-10-05T14:20:23.735Z,97.70
2022-10-05T14:22:58.153Z,97.80
2022-10-05T14:25:28.241Z,97.40
2022-10-05T14:28:02.097Z,97.90
2022-10-05T14:30:33.507Z,97.80
2022-10-05T14:33:15.470Z,97.90
2022-10-05T14:35:50.109Z,98.00
2022-10-05T14:38:22.478Z,97.70
2022-10-05T14:41:06.185Z,97.80
2022-10-05T14:43:36.270Z,98.20
2022-10-05T14:46:27.211Z,99.10
2022-10-05T14:49:18.107Z,98.70
2022-10-05T14:51:46.817Z,98.30
2022-10-05T14:54:27.459Z,98.60
2022-10-05T14:57:04.950Z,98.90
2022-10-05T14:59:55.271Z,98.50
2022-10-05T15:02:59.198Z,99.10
2022-10-05T15:05:32.624Z,98.80
2022-10-05T15:08:17.338Z,99.10
2022-10-05T15:10:53.286Z,98.90
2022-10-05T15:13:54.750Z,99.00
2022-10-05T15:16:29.118Z,99.90
2022-10-05T15:19:08.261Z,99.90
2022-10-05T15:21:52.017Z,99.90
2022-10-05T15:24:26.547Z,99.90
2022-10-05T15:26:58.295Z,99.90
2022-10-05T15:29:41.936Z,99.90
2022-10-05T15:32:22.005Z,99.90
2022-10-05T15:35:04.033Z,99.90
2022-10-05T15:37:38.408Z,99.90
2022-10-05T15:40:17.228Z,99.90
2022-10-05T15:42:45.908Z,99.90
2022-10-05T15:45:23.380Z,99.90
2022-10-05T15:48:00.157Z,99.90
2022-10-05T15:50:36.194Z,99.90
2022-10-05T15:53:14.524Z,99.90
2022-10-05T15:55:48.379Z,99.90
2022-10-05T15:58:45.693Z,99.90
2022-10-05T16:01:19.723Z,99.90
2022-10-05T16:03:52.052Z,99.90
2022-10-05T16:06:56.497Z,99.90
2022-10-05T16:09:40.126Z,99.90
2022-10-05T16:12:19.289Z,99.90
2022-10-05T16:14:59.789Z,99.90
2022-10-05T16:17:48.006Z,99.90
2022-10-05T16:20:29.828Z,99.90
2022-10-05T16:23:07.176Z,99.90
2022-10-05T16:25:48.088Z,99.90
2022-10-05T16:28:29.121Z,99.90
2022-10-05T16:31:03.608Z,99.90
2022-10-05T16:33:48.743Z,99.90
2022-10-05T16:36:24.986Z,99.90
2022-10-05T16:39:03.382Z,99.90
2022-10-05T16:41:41.407Z,99.90
2022-10-05T16:44:20.811Z,99.90
2022-10-05T16:46:58.002Z,99.90
2022-10-05T16:49:38.559Z,99.90
2022-10-05T16:52:13.521Z,99.90
2022-10-05T16:54:48.224Z,99.90
2022-10-05T16:57:22.796Z,99.90
2022-10-05T17:00:16.904Z,99.90
2022-10-05T17:03:14.422Z,99.90
2022-10-05T17:06:06.190Z,99.90
2022-10-05T17:08:52.583Z,99.90
2022-10-05T17:11:35.176Z,99.90
2022-10-05T17:14:26.115Z,99.90
2022-10-05T17:17:17.705Z,99.90
2022-10-05T17:20:03.257Z,99.90
2022-10-05T17:22:40.051Z,99.90
2022-10-05T17:25:18.928Z,99.90
2022-10-05T17:27:56.092Z,99.90
2022-10-05T17:30:51.442Z,99.90
2022-10-05T17:33:27.953Z,99.90
2022-10-05T17:36:19.359Z,99.90
2022-10-05T17:38:51.904Z,99.90
2022-10-05T17:41:26.679Z,99.90
2022-10-05T17:44:26.497Z,99.90
2022-10-05T17:46:58.830Z,99.90
2022-10-05T17:50:13.817Z,99.90
2022-10-05T17:53:02.676Z,99.90
2022-10-05T17:56:03.736Z,99.90
2022-10-05T17:59:04.534Z,99.90
2022-10-05T18:01:38.070Z,99.90
2022-10-05T18:04:29.137Z,99.90
2022-10-05T18:07:06.947Z,99.90
2022-10-05T18:09:57.630Z,99.90
2022-10-05T18:12:47.705Z,99.90
2022-10-05T18:15:33.509Z,99.90
2022-10-05T18:18:50.375Z,99.90
2022-10-05T18:21:30.497Z,99.90
2022-10-05T18:24:07.218Z,99.90
2022-10-05T18:26:43.998Z,99.90
2022-10-05T18:29:39.518Z,99.90
2022-10-05T18:32:19.533Z,99.90
2022-10-05T18:35:02.171Z,99.90
2022-10-05T18:37:50.501Z,99.90
2022-10-05T18:40:40.082Z,99.90
2022-10-05T18:43:23.236Z,99.90
2022-10-05T18:46:05.515Z,99.90
2022-10-05T18:48:46.816Z,99.90
2022-10-05T18:51:26.102Z,99.90
2022-10-05T18:54:08.756Z,99.90
2022-10-05T18:56:42.421Z,99.90
2022-10-05T18:59:28.367Z,99.90
2022-10-05T19:02:19.819Z,99.90
2022-10-05T19:05:09.179Z,99.90
2022-10-05T19:08:00.018Z,99.90
2022-10-05T19:10:35.520Z,99.90
2022-10-05T19:13:23.277Z,99.90
2022-10-05T19:16:03.118Z,99.90
2022-10-05T19:18:46.509Z,99.90
2022-10-05T19:21:26.207Z,99.90
2022-10-05T19:24:14.030Z,99.90
2022-10-05T19:27:00.011Z,99.90
2022-10-05T19:29:48.288Z,99.90
2022-10-05T19:32:23.904Z,99.90
2022-10-05T19:35:07.029Z,99.90
2022-10-05T19:37:47.586Z,99.90
2022-10-05T19:40:24.328Z,99.90
2022-10-05T19:43:10.079Z,99.90
2022-10-05T19:45:44.656Z,99.90
2022-10-05T19:48:27.822Z,99.90
2022-10-05T19:50:59.117Z,99.90
2022-10-05T19:53:30.539Z,99.90
2022-10-05T19:56:25.549Z,99.90
2022-10-05T19:58:56.514Z,99.90
2022-10-05T20:01:27.341Z,99.90
2022-10-05T20:03:57.948Z,99.90
2022-10-05T20:06:29.486Z,99.90
2022-10-05T20:09:04.497Z,99.90
2022-10-05T20:11:49.574Z,99.90
2022-10-05T20:14:20.781Z,99.90
2022-10-05T20:17:06.931Z,99.90
2022-10-05T20:19:57.436Z,99.90
2022-10-05T20:22:32.740Z,99.90
2022-10-05T20:25:05.689Z,99.90
2022-10-05T20:27:46.507Z,99.90
2022-10-05T20:30:18.332Z,99.90
2022-10-05T20:32:48.993Z,99.90
2022-10-05T20:35:18.623Z,99.90
2022-10-05T20:37:47.236Z,99.90
2022-10-05T20:40:17.644Z,99.90
2022-10-05T20:42:47.865Z,99.90
2022-10-05T20:45:17.260Z,99.90
2022-10-05T20:47:46.563Z,99.90
2022-10-05T20:50:15.846Z,99.90
2022-10-05T20:52:44.655Z,99.90
2022-10-05T20:55:13.456Z,99.90
2022-10-05T20:57:42.549Z,99.90
2022-10-05T21:00:14.373Z,99.90
2022-10-05T21:02:42.919Z,99.90
2022-10-05T21:05:11.633Z,99.90
2022-10-05T21:07:40.946Z,99.90
2022-10-05T21:10:10.241Z,99.90
2022-10-05T21:12:38.888Z,99.90
2022-10-05T21:15:08.103Z,99.90
2022-10-05T21:17:38.834Z,99.90
2022-10-05T21:20:11.523Z,99.90
2022-10-05T21:22:40.468Z,99.90
2022-10-05T21:25:09.876Z,99.90
2022-10-05T21:27:38.509Z,99.90
2022-10-05T21:30:08.525Z,99.90
2022-10-05T21:32:43.959Z,99.90
2022-10-05T21:35:13.182Z,99.90
2022-10-05T21:37:41.813Z,99.90
2022-10-05T21:40:11.336Z,99.90
2022-10-05T21:42:40.072Z,99.90
2022-10-05T21:45:09.971Z,99.90
2022-10-05T21:47:40.021Z,99.90
2022-10-05T21:50:10.298Z,99.90
2022-10-05T21:52:38.990Z,99.90
2022-10-05T21:55:08.525Z,99.90
2022-10-05T21:57:38.267Z,99.90
2022-10-05T22:00:09.985Z,99.90
2022-10-05T22:02:40.070Z,99.90
2022-10-05T22:05:09.416Z,99.90
2022-10-05T22:07:38.466Z,99.90
2022-10-05T22:10:08.238Z,99.90
2022-10-05T22:12:36.992Z,99.90
2022-10-05T22:15:07.121Z,99.90
2022-10-05T22:17:36.176Z,99.90
2022-10-05T22:20:07.065Z,99.90
2022-10-05T22:22:36.025Z,99.90
2022-10-05T22:25:05.810Z,99.90
2022-10-05T22:27:35.710Z,99.90
2022-10-05T22:30:05.754Z,99.90
2022-10-05T22:32:34.328Z,99.90
2022-10-05T22:35:03.766Z,99.90
2022-10-05T22:37:37.888Z,99.90
2022-10-05T22:40:14.773Z,99.90
2022-10-05T22:42:43.422Z,99.90
2022-10-05T22:45:12.258Z,99.90
2022-10-05T22:47:42.273Z,99.90
2022-10-05T22:50:11.142Z,99.90
2022-10-05T22:52:41.443Z,99.90
2022-10-05T22:55:10.815Z,99.90
2022-10-05T22:57:40.196Z,99.90
2022-10-05T23:00:10.927Z,99.90
2022-10-05T23:02:40.346Z,99.90
2022-10-05T23:05:10.429Z,99.90
2022-10-05T23:07:42.493Z,99.90
2022-10-05T23:10:12.589Z,99.90
2022-10-05T23:12:41.213Z,99.90
2022-10-05T23:15:10.908Z,99.90
2022-10-05T23:17:40.468Z,99.90
2022-10-05T23:20:09.755Z,99.90
2022-10-05T23:22:39.969Z,99.90
2022-10-05T23:25:09.500Z,99.90
2022-10-05T23:27:38.891Z,99.90
2022-10-05T23:30:09.918Z,99.90
2022-10-05T23:32:40.014Z,99.90
2022-10-05T23:35:14.731Z,99.90
2022-10-05T23:37:45.904Z,99.90
2022-10-05T23:40:15.269Z,99.90
2022-10-05T23:42:43.977Z,99.90
2022-10-05T23:45:13.325Z,99.90
2022-10-05T23:47:42.161Z,99.90
2022-10-05T23:50:11.246Z,99.90
2022-10-05T23:52:39.811Z,99.90
2022-10-05T23:55:10.757Z,99.90
2022-10-05T23:57:40.308Z,99.90
